Time;durP1;ratioP1;P1;durP2;ratioP2;P2;SDS_P1;SDS_P2;PMS_P1;PMS_P2;Temp;Humidity;BMP_temperature;BMP_pressure;BME280_temperature;BME280_humidity;BME280_pressure;Samples;Min_cycle;Max_cycle;Signal;HPM_P1;HPM_P2
2021/08/22 00:01:14;;;;;;;18.45;13.85;;;20.50;99.90;;;;;;4991580;28;20473;-59
2021/08/22 00:03:39;;;;;;;17.75;13.02;;;20.40;99.90;;;;;;4992664;28;20477;-61
2021/08/22 00:06:05;;;;;;;20.77;13.35;;;20.40;99.90;;;;;;4992612;28;20473;-61
2021/08/22 00:08:31;;;;;;;17.00;12.20;;;20.30;99.90;;;;;;4991670;28;20738;-61
2021/08/22 00:10:57;;;;;;;17.00;11.48;;;20.40;99.90;;;;;;4992242;28;20758;-62
2021/08/22 00:13:23;;;;;;;15.40;10.80;;;20.30;99.90;;;;;;4991679;28;20383;-61
2021/08/22 00:15:49;;;;;;;14.27;9.70;;;20.20;99.90;;;;;;4992035;28;20410;-61
2021/08/22 00:18:15;;;;;;;13.40;7.95;;;20.20;99.90;;;;;;4992075;28;20401;-59
2021/08/22 00:20:41;;;;;;;15.30;5.77;;;20.30;99.90;;;;;;4991885;28;20387;-61
2021/08/22 00:23:06;;;;;;;7.22;2.80;;;20.20;99.90;;;;;;4991349;28;20758;-61
2021/08/22 00:25:32;;;;;;;7.90;1.77;;;19.40;99.90;;;;;;4990745;28;20394;-61
2021/08/22 00:27:58;;;;;;;8.43;2.20;;;18.70;99.90;;;;;;4991995;28;20406;-61
2021/08/22 00:30:24;;;;;;;10.50;1.80;;;18.20;99.90;;;;;;4991374;28;20393;-61
2021/08/22 00:32:49;;;;;;;5.87;1.80;;;17.90;99.90;;;;;;4991877;28;20382;-63
2021/08/22 00:35:15;;;;;;;5.63;1.52;;;17.60;99.90;;;;;;4991119;28;20854;-59
2021/08/22 00:37:42;;;;;;;9.63;2.22;;;17.20;99.90;;;;;;4991538;28;20519;-63
2021/08/22 00:40:08;;;;;;;4.50;1.60;;;17.20;99.90;;;;;;4991557;28;20395;-63
2021/08/22 00:42:35;;;;;;;6.28;1.73;;;17.20;99.90;;;;;;4990823;28;20382;-63
2021/08/22 00:45:05;;;;;;;4.57;1.90;;;17.10;99.90;;;;;;4991652;28;20382;-62
2021/08/22 00:47:31;;;;;;;4.93;1.85;;;17.20;99.90;;;;;;4990484;28;20426;-64
2021/08/22 00:49:59;;;;;;;5.18;2.05;;;17.20;99.90;;;;;;4990930;28;20383;-61
2021/08/22 00:52:26;;;;;;;4.63;1.85;;;17.30;99.90;;;;;;4990194;28;20416;-62
2021/08/22 00:54:52;;;;;;;4.53;1.73;;;17.30;99.90;;;;;;4991140;28;20794;-62
2021/08/22 00:57:17;;;;;;;5.80;2.17;;;17.40;99.90;;;;;;4990444;28;20390;-61
2021/08/22 00:59:43;;;;;;;5.80;1.65;;;17.50;99.90;;;;;;4991257;28;20758;-64
2021/08/22 01:02:14;;;;;;;5.87;1.87;;;17.70;99.90;;;;;;4991001;28;20390;-63
2021/08/22 01:04:53;;;;;;;6.82;2.20;;;17.70;99.90;;;;;;4991014;28;20432;-62
2021/08/22 01:07:24;;;;;;;5.05;1.90;;;17.70;99.90;;;;;;4990352;28;20496;-62
2021/08/22 01:09:52;;;;;;;6.18;2.10;;;17.80;99.90;;;;;;4990939;28;20751;-62
2021/08/22 01:12:27;;;;;;;5.07;2.00;;;17.80;99.90;;;;;;4989374;28;20386;-60
2021/08/22 01:14:57;;;;;;;5.75;2.30;;;18.00;99.90;;;;;;4991153;28;20387;-63
2021/08/22 01:17:25;;;;;;;7.55;2.55;;;18.20;99.90;;;;;;4990604;28;20406;-62
2021/08/22 01:20:01;;;;;;;5.03;2.03;;;18.20;99.90;;;;;;4990813;28;20739;-63
2021/08/22 01:22:28;;;;;;;6.60;2.42;;;18.40;99.90;;;;;;4990163;28;20418;-62
2021/08/22 01:24:56;;;;;;;6.70;2.30;;;18.30;99.90;;;;;;4990662;28;20398;-62
2021/08/22 01:27:22;;;;;;;6.40;2.30;;;18.30;99.90;;;;;;4989960;28;20411;-62
2021/08/22 01:30:15;;;;;;;7.20;2.60;;;18.40;99.90;;;;;;4990909;28;20445;-62
2021/08/22 01:32:43;;;;;;;6.05;2.38;;;18.40;99.90;;;;;;4984312;28;20540;-62
2021/08/22 01:35:12;;;;;;;5.53;2.33;;;18.40;99.90;;;;;;4990814;28;20398;-63
2021/08/22 01:37:40;;;;;;;5.35;2.20;;;18.30;99.90;;;;;;4989671;28;20390;-62
2021/08/22 01:40:10;;;;;;;4.90;2.20;;;18.10;99.90;;;;;;4990400;28;20397;-62
2021/08/22 01:42:37;;;;;;;6.22;2.47;;;18.00;99.90;;;;;;4983961;28;21046;-62
2021/08/22 01:45:06;;;;;;;6.00;2.40;;;18.00;99.90;;;;;;4970448;28;20399;-64
2021/08/22 01:47:39;;;;;;;8.82;2.53;;;18.00;99.90;;;;;;4952310;28;20430;-61
2021/08/22 01:50:06;;;;;;;7.70;2.60;;;17.90;99.90;;;;;;4970573;28;20384;-62
2021/08/22 01:52:33;;;;;;;6.40;2.60;;;17.90;99.90;;;;;;4969917;28;20415;-61
2021/08/22 01:55:01;;;;;;;5.10;2.20;;;17.70;99.90;;;;;;4970770;28;20867;-60
2021/08/22 01:57:26;;;;;;;7.15;2.58;;;17.60;99.90;;;;;;4969878;28;20986;-62
2021/08/22 01:59:52;;;;;;;7.10;2.80;;;17.50;99.90;;;;;;4970788;28;20491;-61
2021/08/22 02:02:18;;;;;;;7.37;2.63;;;17.40;99.90;;;;;;4970556;28;20389;-59
2021/08/22 02:04:58;;;;;;;6.10;2.60;;;17.30;99.90;;;;;;4970948;28;20856;-62
2021/08/22 02:07:27;;;;;;;7.95;2.80;;;17.30;99.90;;;;;;4969848;28;20531;-61
2021/08/22 02:10:04;;;;;;;6.20;2.80;;;17.20;99.90;;;;;;4970717;28;20415;-62
2021/08/22 02:12:30;;;;;;;7.00;3.33;;;17.20;99.90;;;;;;4970499;28;20384;-62
2021/08/22 02:15:06;;;;;;;9.50;3.22;;;17.10;99.90;;;;;;4970885;28;20536;-62
2021/08/22 02:17:36;;;;;;;8.10;3.60;;;17.10;99.90;;;;;;4969847;28;20970;-63
2021/08/22 02:20:04;;;;;;;8.35;3.30;;;17.00;99.90;;;;;;4970486;28;20768;-63
2021/08/22 02:22:32;;;;;;;6.72;3.17;;;17.10;99.90;;;;;;4970262;28;20428;-62
2021/08/22 02:24:58;;;;;;;8.20;3.40;;;17.20;99.90;;;;;;4974594;28;20475;-63
2021/08/22 02:27:29;;;;;;;7.70;3.60;;;17.10;99.90;;;;;;4981945;28;20421;-62
2021/08/22 02:29:56;;;;;;;7.05;3.70;;;17.20;99.90;;;;;;4994270;28;20394;-62
2021/08/22 02:32:23;;;;;;;8.70;3.60;;;17.20;99.90;;;;;;4993437;28;20389;-61
2021/08/22 02:34:50;;;;;;;9.83;4.00;;;17.10;99.90;;;;;;4994020;28;20477;-61
2021/08/22 02:37:16;;;;;;;7.75;3.72;;;17.20;99.90;;;;;;4993736;28;20601;-58
2021/08/22 02:39:41;;;;;;;8.57;4.50;;;17.20;99.90;;;;;;4993517;28;20437;-62
2021/08/22 02:42:07;;;;;;;9.77;4.40;;;17.20;99.90;;;;;;4993905;28;20798;-61
2021/08/22 02:44:33;;;;;;;8.35;4.50;;;17.20;99.90;;;;;;4993195;28;20386;-63
2021/08/22 02:46:59;;;;;;;8.20;4.00;;;17.30;99.90;;;;;;4994177;28;20871;-63
2021/08/22 02:49:25;;;;;;;8.73;4.53;;;17.40;99.90;;;;;;4994023;28;20506;-63
2021/08/22 02:51:51;;;;;;;10.00;4.50;;;17.50;99.90;;;;;;4993134;28;20434;-63
2021/08/22 02:54:17;;;;;;;7.97;4.50;;;17.60;99.90;;;;;;4993060;28;20474;-60
2021/08/22 02:56:42;;;;;;;8.70;4.30;;;17.70;99.90;;;;;;4993374;28;20882;-63
2021/08/22 02:59:08;;;;;;;9.20;4.90;;;17.70;99.90;;;;;;4993371;28;20473;-63
2021/08/22 03:01:34;;;;;;;9.10;5.07;;;17.80;99.90;;;;;;4992579;28;20390;-63
2021/08/22 03:03:59;;;;;;;9.25;4.95;;;17.90;99.90;;;;;;4993246;28;20792;-62
2021/08/22 03:06:25;;;;;;;10.70;4.78;;;18.00;99.90;;;;;;4992309;28;20457;-62
2021/08/22 03:08:51;;;;;;;8.40;4.40;;;18.00;99.90;;;;;;4993085;28;20458;-62
2021/08/22 03:11:18;;;;;;;8.70;4.90;;;17.90;99.90;;;;;;4992841;28;20382;-59
2021/08/22 03:13:44;;;;;;;8.80;4.50;;;17.90;99.90;;;;;;4992651;28;20394;-62
2021/08/22 03:16:10;;;;;;;10.63;5.40;;;18.00;99.90;;;;;;4992834;28;20425;-61
2021/08/22 03:18:35;;;;;;;8.87;4.43;;;17.90;99.90;;;;;;4992328;28;20437;-62
2021/08/22 03:21:01;;;;;;;9.63;5.20;;;17.90;99.90;;;;;;4992956;28;20495;-61
2021/08/22 03:23:27;;;;;;;7.75;4.40;;;17.80;99.90;;;;;;4992631;28;20416;-62
2021/08/22 03:25:52;;;;;;;7.97;4.37;;;17.80;99.90;;;;;;4993159;28;20423;-62
2021/08/22 03:28:18;;;;;;;9.20;4.90;;;17.80;99.90;;;;;;4992735;28;20414;-59
2021/08/22 03:30:44;;;;;;;8.98;4.47;;;17.90;99.90;;;;;;4993044;28;20447;-62
2021/08/22 03:33:09;;;;;;;9.45;4.28;;;17.90;99.90;;;;;;4992815;28;20421;-65
2021/08/22 03:35:35;;;;;;;9.70;4.50;;;17.90;99.90;;;;;;4991283;28;20382;-62
2021/08/22 03:38:00;;;;;;;8.67;5.07;;;17.90;99.90;;;;;;4992893;28;20519;-64
2021/08/22 03:40:26;;;;;;;9.00;4.50;;;17.90;99.90;;;;;;4992069;28;20435;-63
2021/08/22 03:42:52;;;;;;;9.48;4.40;;;17.80;99.90;;;;;;4992777;28;20400;-63
2021/08/22 03:45:17;;;;;;;8.25;4.20;;;17.90;99.90;;;;;;4992327;28;20424;-59
2021/08/22 03:47:43;;;;;;;8.50;4.50;;;18.00;99.90;;;;;;4992404;28;20430;-63
2021/08/22 03:50:09;;;;;;;9.05;4.53;;;18.10;99.90;;;;;;4992829;28;20469;-63
2021/08/22 03:52:35;;;;;;;7.97;4.15;;;18.10;99.90;;;;;;4991458;28;20910;-63
2021/08/22 03:55:00;;;;;;;10.17;4.60;;;18.20;99.90;;;;;;4992696;28;20390;-65
2021/08/22 03:57:26;;;;;;;9.25;5.10;;;18.10;99.90;;;;;;4992077;28;20874;-63
2021/08/22 03:59:51;;;;;;;9.00;4.20;;;18.20;99.90;;;;;;4992403;28;20379;-63
2021/08/22 04:02:17;;;;;;;8.30;4.53;;;18.30;99.90;;;;;;4992183;28;20391;-60
2021/08/22 04:04:43;;;;;;;9.70;4.30;;;18.40;99.90;;;;;;4991882;28;20391;-63
2021/08/22 04:07:09;;;;;;;9.83;4.63;;;18.30;99.90;;;;;;4978900;28;20835;-63
2021/08/22 04:09:35;;;;;;;10.48;3.90;;;18.10;99.90;;;;;;4972092;28;20400;-63
2021/08/22 04:12:01;;;;;;;8.27;4.37;;;18.10;99.90;;;;;;4972696;28;20468;-63
2021/08/22 04:14:26;;;;;;;9.60;4.23;;;18.20;99.90;;;;;;4953778;28;20909;-62
2021/08/22 04:16:52;;;;;;;11.10;4.20;;;18.20;99.90;;;;;;4972712;28;20407;-63
2021/08/22 04:19:18;;;;;;;9.23;5.30;;;18.20;99.90;;;;;;4972634;28;20384;-60
2021/08/22 04:21:43;;;;;;;8.90;4.10;;;18.20;99.90;;;;;;4971925;28;20400;-63
2021/08/22 04:24:10;;;;;;;8.50;4.30;;;18.20;99.90;;;;;;4972355;28;20740;-62
2021/08/22 04:26:37;;;;;;;9.48;3.95;;;18.00;99.90;;;;;;4971863;28;20462;-63
2021/08/22 04:29:03;;;;;;;7.18;3.95;;;18.00;99.90;;;;;;4972652;28;20431;-63
2021/08/22 04:31:28;;;;;;;8.53;4.30;;;18.00;99.90;;;;;;4980277;28;20862;-64
2021/08/22 04:33:54;;;;;;;10.52;4.20;;;17.90;99.90;;;;;;4978637;28;20414;-63
2021/08/22 04:36:19;;;;;;;8.52;4.55;;;17.80;99.90;;;;;;4991375;28;20720;-59
2021/08/22 04:38:45;;;;;;;7.63;4.13;;;17.70;99.90;;;;;;4991378;28;20884;-63
2021/08/22 04:41:18;;;;;;;7.73;3.90;;;17.70;99.90;;;;;;4992082;28;20389;-63
2021/08/22 04:43:43;;;;;;;10.55;4.63;;;17.80;99.90;;;;;;4990978;28;20476;-63
2021/08/22 04:46:09;;;;;;;9.15;3.95;;;17.90;99.90;;;;;;4991589;28;20784;-63
2021/08/22 04:48:35;;;;;;;7.87;4.00;;;18.10;99.90;;;;;;4973140;28;20449;-63
2021/08/22 04:51:00;;;;;;;7.00;3.67;;;18.10;99.90;;;;;;4986216;28;20800;-63
2021/08/22 04:53:26;;;;;;;7.23;4.03;;;18.30;99.90;;;;;;4971200;28;20420;-63
2021/08/22 04:55:52;;;;;;;8.73;4.40;;;18.40;99.90;;;;;;4972165;28;20392;-62
2021/08/22 04:58:17;;;;;;;7.80;4.18;;;18.60;99.90;;;;;;4971656;28;20454;-63
2021/08/22 05:00:43;;;;;;;7.43;4.00;;;18.60;99.90;;;;;;4971309;28;20395;-63
2021/08/22 05:03:08;;;;;;;7.70;4.47;;;18.80;99.90;;;;;;4971988;28;20384;-63
2021/08/22 05:05:34;;;;;;;8.27;4.20;;;19.00;99.90;;;;;;4970947;28;20467;-63
2021/08/22 05:08:00;;;;;;;7.97;3.90;;;19.00;99.90;;;;;;4971427;28;20915;-63
2021/08/22 05:10:25;;;;;;;8.90;4.20;;;19.10;99.90;;;;;;4970796;28;20414;-63
2021/08/22 05:12:51;;;;;;;8.17;4.10;;;19.20;99.90;;;;;;4971676;28;21189;-63
2021/08/22 05:15:17;;;;;;;10.15;4.50;;;19.30;99.90;;;;;;4971528;28;20423;-63
2021/08/22 05:17:42;;;;;;;6.95;3.83;;;19.50;99.90;;;;;;4971147;28;20395;-63
2021/08/22 05:20:08;;;;;;;9.48;4.40;;;19.40;99.90;;;;;;4971418;28;20484;-63
2021/08/22 05:22:34;;;;;;;8.75;4.00;;;19.40;99.90;;;;;;4970809;28;20487;-62
2021/08/22 05:25:00;;;;;;;7.75;4.20;;;19.30;99.90;;;;;;4971330;28;20487;-62
2021/08/22 05:27:26;;;;;;;9.67;4.90;;;19.20;99.90;;;;;;4970811;28;20764;-63
2021/08/22 05:29:51;;;;;;;9.18;4.57;;;19.20;99.90;;;;;;4971524;28;20431;-63
2021/08/22 05:32:17;;;;;;;7.72;4.10;;;19.20;99.90;;;;;;4971175;28;20388;-63
2021/08/22 05:34:43;;;;;;;8.00;4.50;;;19.30;99.90;;;;;;4970595;28;20475;-63
2021/08/22 05:37:08;;;;;;;9.00;4.20;;;19.30;99.90;;;;;;4971681;28;20420;-62
2021/08/22 05:39:34;;;;;;;9.70;4.57;;;19.30;99.90;;;;;;4970521;28;20422;-62
2021/08/22 05:42:00;;;;;;;8.77;4.00;;;19.30;99.90;;;;;;4971286;28;20419;-63
2021/08/22 05:44:26;;;;;;;9.00;4.70;;;19.40;99.90;;;;;;4970600;28;20452;-63
2021/08/22 05:46:51;;;;;;;10.33;4.40;;;19.50;99.90;;;;;;4971021;28;20439;-63
2021/08/22 05:49:17;;;;;;;9.23;4.40;;;19.50;99.90;;;;;;4966945;28;20486;-63
2021/08/22 05:51:45;;;;;;;9.07;3.97;;;19.90;99.90;;;;;;4975050;28;20498;-63
2021/08/22 05:54:10;;;;;;;8.93;4.68;;;19.30;99.90;;;;;;4986790;28;20403;-63
2021/08/22 05:56:36;;;;;;;10.60;4.60;;;19.30;99.90;;;;;;4969749;28;20392;-63
2021/08/22 05:59:02;;;;;;;8.65;4.03;;;19.30;99.90;;;;;;4978578;28;20386;-63
2021/08/22 06:01:28;;;;;;;9.10;4.40;;;19.40;99.90;;;;;;4989230;28;20442;-63
2021/08/22 06:03:53;;;;;;;10.53;4.10;;;19.60;99.90;;;;;;4989889;28;20383;-63
2021/08/22 06:06:19;;;;;;;11.60;5.20;;;19.60;99.90;;;;;;4972512;28;20394;-63
2021/08/22 06:08:45;;;;;;;9.18;4.97;;;19.80;99.90;;;;;;4972053;28;20403;-63
2021/08/22 06:11:11;;;;;;;7.25;4.63;;;19.90;99.90;;;;;;4970380;28;20388;-63
2021/08/22 06:13:36;;;;;;;9.13;4.65;;;20.00;99.90;;;;;;4980166;28;20503;-63
2021/08/22 06:16:03;;;;;;;9.50;4.40;;;20.00;99.90;;;;;;4978766;28;20527;-63
2021/08/22 06:18:28;;;;;;;8.20;4.40;;;20.00;99.90;;;;;;4974116;28;20481;-66
2021/08/22 06:20:54;;;;;;;8.00;4.70;;;20.20;99.90;;;;;;4979076;28;20555;-65
2021/08/22 06:23:20;;;;;;;10.32;5.28;;;20.30;99.90;;;;;;4977248;28;20823;-62
2021/08/22 06:25:46;;;;;;;10.43;4.75;;;20.40;99.90;;;;;;4984384;28;20753;-62
2021/08/22 06:28:13;;;;;;;8.07;4.23;;;20.50;99.90;;;;;;4988788;28;20560;-63
2021/08/22 06:30:39;;;;;;;9.85;4.70;;;20.70;99.90;;;;;;4984317;28;20412;-62
2021/08/22 06:33:04;;;;;;;7.93;4.22;;;20.70;99.90;;;;;;4984969;28;20501;-63
2021/08/22 06:35:30;;;;;;;10.17;5.20;;;20.90;99.90;;;;;;4977206;28;20415;-63
2021/08/22 06:37:55;;;;;;;10.07;5.30;;;20.90;99.90;;;;;;4981423;28;20420;-63
2021/08/22 06:40:21;;;;;;;7.70;4.70;;;21.20;99.90;;;;;;4988363;28;20399;-58
2021/08/22 06:42:47;;;;;;;8.77;4.93;;;21.60;99.90;;;;;;4986880;28;20493;-61
2021/08/22 06:45:13;;;;;;;8.80;5.63;;;21.80;99.90;;;;;;4978556;28;20416;-61
2021/08/22 06:47:38;;;;;;;9.80;4.83;;;21.90;99.90;;;;;;4985233;28;20426;-62
2021/08/22 06:50:05;;;;;;;8.30;5.20;;;22.00;99.90;;;;;;4976821;28;20428;-60
2021/08/22 06:52:31;;;;;;;8.23;4.70;;;21.80;99.90;;;;;;4976274;28;20426;-61
2021/08/22 06:54:57;;;;;;;10.88;5.20;;;21.60;99.90;;;;;;4977331;28;20933;-61
2021/08/22 06:57:22;;;;;;;8.60;4.90;;;21.40;99.90;;;;;;4974016;28;20408;-61
2021/08/22 06:59:48;;;;;;;8.37;4.70;;;21.30;99.90;;;;;;4974434;28;20406;-62
2021/08/22 07:02:14;;;;;;;12.43;5.28;;;21.10;99.90;;;;;;4984581;28;20393;-61
2021/08/22 07:04:40;;;;;;;8.30;4.55;;;21.10;99.90;;;;;;4973594;28;20423;-62
2021/08/22 07:07:05;;;;;;;9.77;5.18;;;21.10;99.90;;;;;;4977443;28;20481;-61
2021/08/22 07:09:31;;;;;;;10.23;4.93;;;21.10;99.90;;;;;;4982189;28;20778;-61
2021/08/22 07:11:57;;;;;;;9.30;5.25;;;21.00;99.90;;;;;;4984700;28;20396;-62
2021/08/22 07:14:22;;;;;;;8.20;4.82;;;20.90;99.90;;;;;;4964623;28;20930;-59
2021/08/22 07:16:48;;;;;;;9.33;5.30;;;20.90;99.90;;;;;;4991235;28;20410;-62
2021/08/22 07:19:14;;;;;;;9.93;5.60;;;21.00;99.90;;;;;;4983755;28;20743;-61
2021/08/22 07:21:39;;;;;;;8.67;5.10;;;21.80;99.90;;;;;;4990307;28;20398;-62
2021/08/22 07:24:05;;;;;;;10.65;6.35;;;21.30;99.90;;;;;;4984383;28;20396;-63
2021/08/22 07:26:31;;;;;;;10.65;6.03;;;21.20;99.90;;;;;;4982010;28;20383;-62
2021/08/22 07:28:57;;;;;;;9.20;5.70;;;21.00;99.90;;;;;;4988121;28;20388;-62
2021/08/22 07:31:23;;;;;;;9.95;5.72;;;20.90;99.90;;;;;;4972681;28;20392;-59
2021/08/22 07:33:48;;;;;;;8.73;5.00;;;20.90;99.90;;;;;;4972998;28;20403;-62
2021/08/22 07:36:14;;;;;;;9.30;5.30;;;20.90;99.90;;;;;;4976107;28;20398;-62
2021/08/22 07:38:40;;;;;;;8.87;5.10;;;20.90;99.90;;;;;;4981979;28;20377;-62
2021/08/22 07:41:05;;;;;;;10.10;4.93;;;21.10;99.90;;;;;;4981792;28;20390;-62
2021/08/22 07:43:32;;;;;;;11.00;5.10;;;21.20;99.90;;;;;;4981013;28;20385;-62
2021/08/22 07:45:58;;;;;;;8.30;4.90;;;21.20;99.90;;;;;;4982794;28;20758;-62
2021/08/22 07:48:23;;;;;;;8.10;4.80;;;21.10;99.90;;;;;;4979593;28;21028;-60
2021/08/22 07:50:49;;;;;;;8.33;4.90;;;21.00;99.90;;;;;;4978992;28;20486;-62
2021/08/22 07:53:16;;;;;;;8.80;5.10;;;21.10;99.90;;;;;;4981717;28;20746;-63
2021/08/22 07:55:42;;;;;;;11.52;4.68;;;21.30;99.90;;;;;;4964013;28;20402;-62
2021/08/22 07:58:08;;;;;;;9.20;4.80;;;21.60;99.90;;;;;;4980146;28;20399;-62
2021/08/22 08:00:34;;;;;;;9.60;4.97;;;21.90;99.90;;;;;;4978719;28;20776;-63
2021/08/22 08:02:59;;;;;;;8.40;4.22;;;22.00;99.90;;;;;;4981183;28;20398;-62
2021/08/22 08:05:25;;;;;;;7.40;4.50;;;22.20;99.90;;;;;;4976933;28;20418;-59
2021/08/22 08:07:51;;;;;;;14.40;5.17;;;22.20;99.90;;;;;;4972177;28;20467;-61
2021/08/22 08:10:17;;;;;;;9.98;5.07;;;22.30;99.90;;;;;;4978894;28;20405;-63
2021/08/22 08:12:44;;;;;;;7.93;4.28;;;22.30;99.90;;;;;;4964672;28;20656;-62
2021/08/22 08:15:11;;;;;;;8.18;4.50;;;22.40;99.90;;;;;;4974534;28;20724;-62
2021/08/22 08:17:36;;;;;;;7.80;4.20;;;22.60;99.90;;;;;;4990959;28;20810;-63
2021/08/22 08:20:03;;;;;;;8.03;4.40;;;23.40;99.90;;;;;;4974379;28;20890;-62
2021/08/22 08:22:29;;;;;;;10.00;4.82;;;23.70;99.90;;;;;;4967307;28;20747;-62
2021/08/22 08:24:55;;;;;;;9.30;4.47;;;23.80;99.90;;;;;;4974161;28;20398;-63
2021/08/22 08:27:22;;;;;;;8.95;4.28;;;24.00;99.90;;;;;;4981696;28;20757;-62
2021/08/22 08:29:48;;;;;;;9.57;5.20;;;23.80;99.90;;;;;;4981706;28;20434;-63
2021/08/22 08:32:14;;;;;;;8.40;4.70;;;23.10;99.90;;;;;;4977475;28;20446;-62
2021/08/22 08:34:39;;;;;;;8.67;4.57;;;22.90;99.90;;;;;;4975023;28;20382;-63
2021/08/22 08:37:05;;;;;;;7.90;4.47;;;22.90;99.90;;;;;;4975913;28;20412;-62
2021/08/22 08:39:31;;;;;;;7.80;4.35;;;23.10;99.90;;;;;;4972832;28;20398;-62
2021/08/22 08:42:18;;;;;;;9.38;3.97;;;23.60;99.90;;;;;;4975066;28;20408;-62
2021/08/22 08:44:44;;;;;;;8.30;4.30;;;24.00;99.90;;;;;;4980143;28;20461;-61
2021/08/22 08:47:15;;;;;;;8.88;4.40;;;24.40;99.90;;;;;;4980044;28;20935;-63
2021/08/22 08:50:08;;;;;;;7.97;3.90;;;24.40;99.90;;;;;;4970903;28;20389;-63
2021/08/22 08:52:34;;;;;;;6.50;3.50;;;24.30;99.90;;;;;;4970538;28;20416;-62
2021/08/22 08:55:20;;;;;;;6.40;3.47;;;24.10;99.90;;;;;;4971658;28;20450;-62
2021/08/22 08:57:46;;;;;;;6.60;3.50;;;23.90;99.90;;;;;;4970863;28;20420;-62
2021/08/22 09:00:35;;;;;;;6.72;3.70;;;23.70;99.90;;;;;;4973767;28;20438;-62
2021/08/22 09:03:02;;;;;;;7.32;3.30;;;23.10;99.90;;;;;;4982764;28;20435;-60
2021/08/22 09:05:58;;;;;;;7.15;3.70;;;22.90;99.90;;;;;;4975958;28;20388;-59
2021/08/22 09:08:57;;;;;;;6.35;3.40;;;22.70;99.90;;;;;;4980094;28;20412;-59
2021/08/22 09:11:41;;;;;;;7.63;3.40;;;22.80;99.90;;;;;;4980745;28;20385;-60
2021/08/22 09:14:45;;;;;;;7.90;4.05;;;22.80;99.90;;;;;;4978799;28;20389;-60
2021/08/22 09:17:59;;;;;;;7.30;4.03;;;22.50;99.90;;;;;;4935758;28;20407;-63
2021/08/22 09:21:02;;;;;;;8.40;5.05;;;22.40;99.90;;;;;;4910359;28;20420;-59
2021/08/22 09:24:05;;;;;;;10.60;4.30;;;22.30;99.90;;;;;;4975856;28;20391;-58
2021/08/22 09:26:40;;;;;;;12.80;6.82;;;21.80;99.90;;;;;;4977714;28;20390;-58
2021/08/22 09:29:43;;;;;;;11.57;6.50;;;21.20;99.90;;;;;;4975628;28;20423;-61
2021/08/22 09:32:46;;;;;;;12.25;6.65;;;20.40;99.90;;;;;;4976256;28;20450;-60
2021/08/22 09:35:15;;;;;;;13.25;7.78;;;20.20;99.90;;;;;;4974715;28;20386;-61
2021/08/22 09:38:11;;;;;;;14.25;7.50;;;20.10;99.90;;;;;;4976243;28;20396;-63
2021/08/22 09:40:59;;;;;;;13.98;7.32;;;20.20;99.90;;;;;;4968218;28;20408;-63
2021/08/22 09:44:12;;;;;;;12.60;7.40;;;20.30;99.90;;;;;;4972113;28;20393;-61
2021/08/22 09:47:05;;;;;;;12.32;6.97;;;20.70;99.90;;;;;;4920999;28;20392;-61
2021/08/22 09:50:08;;;;;;;11.68;6.93;;;21.30;99.90;;;;;;4975967;28;20399;-63
2021/08/22 09:53:21;;;;;;;9.68;6.00;;;21.60;99.90;;;;;;4976024;28;20941;-63
2021/08/22 09:56:24;;;;;;;9.77;6.20;;;21.90;99.90;;;;;;4977729;28;20395;-61
2021/08/22 09:59:26;;;;;;;13.13;6.73;;;22.10;99.90;;;;;;4978433;28;20618;-60
2021/08/22 10:02:10;;;;;;;14.00;7.00;;;22.10;99.90;;;;;;4977035;28;20397;-61
2021/08/22 10:04:51;;;;;;;10.15;6.75;;;22.10;99.90;;;;;;4973909;28;20865;-61
2021/08/22 10:07:26;;;;;;;11.60;7.10;;;22.30;99.90;;;;;;4980017;28;20463;-61
2021/08/22 10:10:10;;;;;;;13.90;6.80;;;22.30;99.90;;;;;;4975600;28;20404;-61
2021/08/22 10:12:36;;;;;;;13.73;7.35;;;22.20;99.90;;;;;;4974375;28;20986;-59
2021/08/22 10:15:02;;;;;;;11.77;7.47;;;22.10;99.90;;;;;;4956908;28;20475;-62
2021/08/22 10:17:28;;;;;;;10.90;6.90;;;21.90;99.90;;;;;;4979566;28;20430;-59
2021/08/22 10:19:55;;;;;;;12.43;7.40;;;21.90;99.90;;;;;;4974909;28;20440;-61
2021/08/22 10:22:30;;;;;;;10.25;6.90;;;22.00;99.90;;;;;;4961876;28;20827;-61
2021/08/22 10:24:58;;;;;;;11.95;7.20;;;21.90;99.90;;;;;;4971795;28;20434;-62
2021/08/22 10:27:30;;;;;;;11.75;6.90;;;21.70;99.90;;;;;;4977361;28;20420;-61
2021/08/22 10:29:57;;;;;;;11.23;7.30;;;21.40;99.90;;;;;;4978316;28;20399;-61
2021/08/22 10:32:24;;;;;;;11.60;6.97;;;21.40;99.90;;;;;;4973681;28;20890;-63
2021/08/22 10:35:12;;;;;;;12.25;8.00;;;21.20;99.90;;;;;;4974590;28;20388;-60
2021/08/22 10:37:41;;;;;;;12.45;7.85;;;21.20;99.90;;;;;;4976200;28;20476;-63
2021/08/22 10:40:24;;;;;;;10.50;7.28;;;21.30;99.90;;;;;;4969757;28;20875;-63
2021/08/22 10:43:10;;;;;;;12.17;8.30;;;21.30;99.90;;;;;;4976514;28;20927;-62
2021/08/22 10:45:46;;;;;;;12.40;7.93;;;21.30;99.90;;;;;;4974848;28;20400;-62
2021/08/22 10:48:33;;;;;;;11.80;8.20;;;21.20;99.90;;;;;;4981470;28;20518;-63
2021/08/22 10:50:58;;;;;;;11.57;6.70;;;21.00;99.90;;;;;;4982368;28;20795;-63
2021/08/22 10:53:31;;;;;;;5.87;3.00;;;20.80;99.90;;;;;;4981859;28;20392;-63
2021/08/22 10:55:57;;;;;;;4.60;1.50;;;20.20;99.90;;;;;;4979574;28;21057;-63
2021/08/22 10:59:04;;;;;;;4.82;1.45;;;19.80;99.90;;;;;;4984030;28;20397;-63
2021/08/22 11:01:38;;;;;;;4.50;1.60;;;19.10;99.90;;;;;;4981955;28;20417;-64
2021/08/22 11:04:11;;;;;;;5.03;1.50;;;18.50;99.90;;;;;;4956562;28;20406;-63
2021/08/22 11:06:58;;;;;;;4.53;1.60;;;18.40;99.90;;;;;;4972977;28;20428;-62
2021/08/22 11:09:41;;;;;;;4.90;1.50;;;18.20;99.90;;;;;;4973738;28;20935;-62
2021/08/22 11:12:26;;;;;;;5.28;1.40;;;18.20;99.90;;;;;;4973734;28;20384;-64
2021/08/22 11:14:52;;;;;;;3.67;1.00;;;18.10;99.90;;;;;;4973206;28;20512;-64
2021/08/22 11:17:18;;;;;;;4.40;1.30;;;18.10;99.90;;;;;;4973689;28;20470;-64
2021/08/22 11:19:43;;;;;;;4.30;1.30;;;18.10;99.90;;;;;;4982112;28;20489;-63
2021/08/22 11:22:26;;;;;;;6.30;2.20;;;18.10;99.90;;;;;;4993531;28;20390;-64
2021/08/22 11:24:53;;;;;;;5.10;1.60;;;18.30;99.90;;;;;;4986255;28;20402;-64
2021/08/22 11:27:27;;;;;;;5.22;1.83;;;18.50;99.90;;;;;;4981206;28;20453;-64
2021/08/22 11:29:58;;;;;;;5.10;1.98;;;18.50;99.90;;;;;;4977747;28;20720;-62
2021/08/22 11:32:25;;;;;;;5.00;1.88;;;18.50;99.90;;;;;;4978948;28;20907;-62
2021/08/22 11:34:51;;;;;;;4.50;1.70;;;18.50;99.90;;;;;;4975917;28;20395;-63
2021/08/22 11:37:19;;;;;;;5.30;1.77;;;18.60;99.90;;;;;;4960752;28;20388;-63
2021/08/22 11:39:44;;;;;;;4.68;1.60;;;18.60;99.90;;;;;;4980013;28;20384;-63
2021/08/22 11:42:11;;;;;;;4.80;2.00;;;18.70;99.90;;;;;;4978948;28;20895;-63
2021/08/22 11:44:37;;;;;;;5.22;2.28;;;18.70;99.90;;;;;;4983180;28;20801;-63
2021/08/22 11:47:03;;;;;;;6.55;2.00;;;18.80;99.90;;;;;;4981539;28;20446;-63
2021/08/22 11:49:30;;;;;;;4.57;1.70;;;18.90;99.90;;;;;;4982011;28;20392;-60
2021/08/22 11:51:56;;;;;;;4.72;1.60;;;18.90;99.90;;;;;;4983019;28;20413;-64
2021/08/22 11:54:22;;;;;;;6.40;1.70;;;18.90;99.90;;;;;;4978378;28;20479;-63
2021/08/22 11:56:49;;;;;;;6.40;2.55;;;18.80;99.90;;;;;;4977311;28;20396;-64
2021/08/22 11:59:28;;;;;;;5.97;2.70;;;18.90;99.90;;;;;;4979290;28;20388;-64
2021/08/22 12:02:17;;;;;;;5.70;2.70;;;18.70;99.90;;;;;;4977369;28;20876;-61
2021/08/22 12:04:43;;;;;;;5.50;2.42;;;18.80;99.90;;;;;;4978688;28;20400;-62
2021/08/22 12:07:09;;;;;;;6.10;2.60;;;18.90;99.90;;;;;;4980212;28;20422;-61
2021/08/22 12:09:35;;;;;;;6.10;3.10;;;18.80;99.90;;;;;;4977320;28;20404;-58
2021/08/22 12:12:01;;;;;;;8.20;2.90;;;18.80;99.90;;;;;;4978965;28;20384;-60
2021/08/22 12:14:32;;;;;;;6.40;3.50;;;18.70;99.90;;;;;;4983482;28;20427;-59
2021/08/22 12:16:59;;;;;;;6.63;2.88;;;18.70;99.90;;;;;;4976039;28;20468;-61
2021/08/22 12:19:29;;;;;;;6.80;3.65;;;18.50;99.90;;;;;;4981557;28;20436;-61
2021/08/22 12:21:56;;;;;;;7.33;3.20;;;18.30;99.90;;;;;;4980976;28;20392;-61
2021/08/22 12:24:30;;;;;;;7.13;3.60;;;18.30;99.90;;;;;;4966633;28;20420;-60
2021/08/22 12:27:01;;;;;;;7.85;3.30;;;18.50;99.90;;;;;;4976316;28;20430;-60
2021/08/22 12:29:35;;;;;;;6.65;2.80;;;18.50;99.90;;;;;;4975291;28;20526;-61
2021/08/22 12:32:19;;;;;;;7.65;3.10;;;18.50;99.90;;;;;;4965997;28;20400;-60
2021/08/22 12:34:45;;;;;;;7.73;3.87;;;18.40;99.90;;;;;;4976871;28;20883;-60
2021/08/22 12:37:22;;;;;;;7.00;3.60;;;18.40;99.90;;;;;;4977823;28;20403;-60
2021/08/22 12:40:05;;;;;;;7.75;3.90;;;18.50;99.90;;;;;;4977562;28;20414;-59
2021/08/22 12:42:31;;;;;;;6.32;3.35;;;18.70;99.90;;;;;;4979283;28;20378;-60
2021/08/22 12:44:57;;;;;;;5.85;3.00;;;17.50;99.90;;;;;;4980878;28;20398;-60
2021/08/22 12:47:24;;;;;;;6.68;3.10;;;18.90;99.90;;;;;;4978599;28;20497;-60
2021/08/22 12:49:50;;;;;;;7.00;3.40;;;18.80;99.90;;;;;;4977534;28;20453;-60
2021/08/22 12:52:16;;;;;;;6.40;3.05;;;18.80;99.90;;;;;;4975910;28;20407;-60
2021/08/22 12:54:42;;;;;;;6.20;3.30;;;18.70;99.90;;;;;;4977282;28;20927;-60
2021/08/22 12:57:08;;;;;;;6.30;3.30;;;18.70;99.90;;;;;;4973228;28;20447;-60
2021/08/22 12:59:34;;;;;;;5.97;2.80;;;18.80;99.90;;;;;;4979609;28;20455;-59